sensor_id;sensor_type;location;lat;lon;timestamp;P1;durP1;ratioP1;P2;durP2;ratioP2
19509;SDS011;9896;42.486;26.506;2023-06-22T00:02:18;16.00;;;11.37;;
19509;SDS011;9896;42.486;26.506;2023-06-22T00:04:44;16.40;;;10.43;;
19509;SDS011;9896;42.486;26.506;2023-06-22T00:07:09;15.40;;;11.47;;
19509;SDS011;9896;42.486;26.506;2023-06-22T00:09:34;15.70;;;10.77;;
19509;SDS011;9896;42.486;26.506;2023-06-22T00:12:01;13.50;;;10.87;;
19509;SDS011;9896;42.486;26.506;2023-06-22T00:14:26;16.20;;;11.40;;
19509;SDS011;9896;42.486;26.506;2023-06-22T00:16:51;15.40;;;10.30;;
19509;SDS011;9896;42.486;26.506;2023-06-22T00:19:22;16.43;;;11.43;;
19509;SDS011;9896;42.486;26.506;2023-06-22T00:21:48;15.40;;;11.13;;
19509;SDS011;9896;42.486;26.506;2023-06-22T00:24:21;15.77;;;11.17;;
19509;SDS011;9896;42.486;26.506;2023-06-22T00:26:47;14.03;;;10.87;;
19509;SDS011;9896;42.486;26.506;2023-06-22T00:29:12;16.93;;;10.43;;
19509;SDS011;9896;42.486;26.506;2023-06-22T00:31:38;15.37;;;10.63;;
19509;SDS011;9896;42.486;26.506;2023-06-22T00:34:03;14.07;;;10.73;;
19509;SDS011;9896;42.486;26.506;2023-06-22T00:36:28;13.47;;;10.47;;
19509;SDS011;9896;42.486;26.506;2023-06-22T00:38:54;14.70;;;10.83;;
19509;SDS011;9896;42.486;26.506;2023-06-22T00:41:19;13.03;;;10.47;;
19509;SDS011;9896;42.486;26.506;2023-06-22T00:43:44;13.97;;;10.37;;
19509;SDS011;9896;42.486;26.506;2023-06-22T00:46:10;13.67;;;10.40;;
19509;SDS011;9896;42.486;26.506;2023-06-22T00:48:35;13.87;;;10.87;;
19509;SDS011;9896;42.486;26.506;2023-06-22T00:51:02;12.73;;;9.80;;
19509;SDS011;9896;42.486;26.506;2023-06-22T00:53:27;15.57;;;10.63;;
19509;SDS011;9896;42.486;26.506;2023-06-22T00:55:52;16.07;;;10.67;;
19509;SDS011;9896;42.486;26.506;2023-06-22T00:58:18;13.87;;;10.17;;
19509;SDS011;9896;42.486;26.506;2023-06-22T01:00:46;14.37;;;10.17;;
19509;SDS011;9896;42.486;26.506;2023-06-22T01:03:12;17.03;;;10.73;;
19509;SDS011;9896;42.486;26.506;2023-06-22T01:05:37;15.47;;;10.67;;
19509;SDS011;9896;42.486;26.506;2023-06-22T01:10:51;17.30;;;11.07;;
19509;SDS011;9896;42.486;26.506;2023-06-22T01:15:58;15.87;;;11.17;;
19509;SDS011;9896;42.486;26.506;2023-06-22T01:18:25;18.00;;;11.30;;
19509;SDS011;9896;42.486;26.506;2023-06-22T01:20:53;14.67;;;10.40;;
19509;SDS011;9896;42.486;26.506;2023-06-22T01:23:29;15.57;;;10.77;;
19509;SDS011;9896;42.486;26.506;2023-06-22T01:31:09;14.33;;;11.20;;
19509;SDS011;9896;42.486;26.506;2023-06-22T01:33:37;15.27;;;10.40;;
19509;SDS011;9896;42.486;26.506;2023-06-22T01:36:02;18.93;;;11.00;;
19509;SDS011;9896;42.486;26.506;2023-06-22T01:38:28;15.07;;;11.03;;
19509;SDS011;9896;42.486;26.506;2023-06-22T01:40:54;15.90;;;10.90;;
19509;SDS011;9896;42.486;26.506;2023-06-22T01:43:20;14.73;;;10.77;;
19509;SDS011;9896;42.486;26.506;2023-06-22T01:45:48;18.43;;;11.67;;
19509;SDS011;9896;42.486;26.506;2023-06-22T01:48:13;16.50;;;10.87;;
19509;SDS011;9896;42.486;26.506;2023-06-22T01:50:38;15.20;;;10.83;;
19509;SDS011;9896;42.486;26.506;2023-06-22T01:53:04;14.57;;;10.37;;
19509;SDS011;9896;42.486;26.506;2023-06-22T01:55:31;15.90;;;10.57;;
19509;SDS011;9896;42.486;26.506;2023-06-22T01:57:57;19.83;;;10.20;;
19509;SDS011;9896;42.486;26.506;2023-06-22T02:00:22;18.97;;;10.80;;
19509;SDS011;9896;42.486;26.506;2023-06-22T02:02:52;15.20;;;10.70;;
19509;SDS011;9896;42.486;26.506;2023-06-22T02:05:18;12.43;;;10.23;;
19509;SDS011;9896;42.486;26.506;2023-06-22T02:07:45;14.17;;;10.67;;
19509;SDS011;9896;42.486;26.506;2023-06-22T02:10:11;16.70;;;10.40;;
19509;SDS011;9896;42.486;26.506;2023-06-22T02:12:39;16.23;;;10.80;;
19509;SDS011;9896;42.486;26.506;2023-06-22T02:15:06;15.47;;;10.40;;
19509;SDS011;9896;42.486;26.506;2023-06-22T02:17:33;14.07;;;10.37;;
19509;SDS011;9896;42.486;26.506;2023-06-22T02:19:59;17.00;;;10.67;;
19509;SDS011;9896;42.486;26.506;2023-06-22T02:22:26;20.03;;;11.20;;
19509;SDS011;9896;42.486;26.506;2023-06-22T02:24:51;16.77;;;10.10;;
19509;SDS011;9896;42.486;26.506;2023-06-22T02:27:16;15.20;;;10.60;;
19509;SDS011;9896;42.486;26.506;2023-06-22T02:29:41;17.83;;;12.43;;
19509;SDS011;9896;42.486;26.506;2023-06-22T02:32:07;20.43;;;12.07;;
19509;SDS011;9896;42.486;26.506;2023-06-22T02:34:32;18.33;;;11.30;;
19509;SDS011;9896;42.486;26.506;2023-06-22T02:36:59;19.03;;;11.83;;
19509;SDS011;9896;42.486;26.506;2023-06-22T02:39:25;18.93;;;12.67;;
19509;SDS011;9896;42.486;26.506;2023-06-22T02:41:53;18.57;;;12.23;;
19509;SDS011;9896;42.486;26.506;2023-06-22T02:44:19;20.97;;;13.20;;
19509;SDS011;9896;42.486;26.506;2023-06-22T02:46:45;15.97;;;12.50;;
19509;SDS011;9896;42.486;26.506;2023-06-22T02:49:10;19.63;;;12.13;;
19509;SDS011;9896;42.486;26.506;2023-06-22T02:51:37;23.13;;;13.00;;
19509;SDS011;9896;42.486;26.506;2023-06-22T02:54:04;16.57;;;11.93;;
19509;SDS011;9896;42.486;26.506;2023-06-22T02:56:29;17.67;;;11.90;;
19509;SDS011;9896;42.486;26.506;2023-06-22T02:58:55;17.77;;;12.20;;
19509;SDS011;9896;42.486;26.506;2023-06-22T03:01:25;14.80;;;11.20;;
19509;SDS011;9896;42.486;26.506;2023-06-22T03:03:52;17.93;;;11.70;;
19509;SDS011;9896;42.486;26.506;2023-06-22T03:06:18;14.63;;;11.57;;
19509;SDS011;9896;42.486;26.506;2023-06-22T03:08:49;18.53;;;11.50;;
19509;SDS011;9896;42.486;26.506;2023-06-22T03:11:14;13.17;;;10.80;;
19509;SDS011;9896;42.486;26.506;2023-06-22T03:13:40;19.33;;;11.73;;
19509;SDS011;9896;42.486;26.506;2023-06-22T03:16:05;18.97;;;12.37;;
19509;SDS011;9896;42.486;26.506;2023-06-22T03:18:30;16.77;;;11.37;;
19509;SDS011;9896;42.486;26.506;2023-06-22T03:20:55;19.83;;;11.10;;
19509;SDS011;9896;42.486;26.506;2023-06-22T03:23:21;24.27;;;12.03;;
19509;SDS011;9896;42.486;26.506;2023-06-22T03:25:47;16.00;;;10.80;;
19509;SDS011;9896;42.486;26.506;2023-06-22T03:28:12;16.00;;;10.83;;
19509;SDS011;9896;42.486;26.506;2023-06-22T03:30:37;16.10;;;12.00;;
19509;SDS011;9896;42.486;26.506;2023-06-22T03:33:03;17.53;;;11.33;;
19509;SDS011;9896;42.486;26.506;2023-06-22T03:35:28;15.03;;;11.77;;
19509;SDS011;9896;42.486;26.506;2023-06-22T03:37:53;17.47;;;12.40;;
19509;SDS011;9896;42.486;26.506;2023-06-22T03:40:18;18.93;;;12.03;;
19509;SDS011;9896;42.486;26.506;2023-06-22T03:42:44;22.13;;;12.63;;
19509;SDS011;9896;42.486;26.506;2023-06-22T03:45:09;18.63;;;12.10;;
19509;SDS011;9896;42.486;26.506;2023-06-22T03:47:35;21.33;;;12.97;;
19509;SDS011;9896;42.486;26.506;2023-06-22T03:50:00;20.47;;;13.10;;
19509;SDS011;9896;42.486;26.506;2023-06-22T03:52:28;21.23;;;13.37;;
19509;SDS011;9896;42.486;26.506;2023-06-22T03:54:53;15.37;;;12.57;;
19509;SDS011;9896;42.486;26.506;2023-06-22T03:57:19;21.87;;;13.17;;
19509;SDS011;9896;42.486;26.506;2023-06-22T03:59:44;21.83;;;12.33;;
19509;SDS011;9896;42.486;26.506;2023-06-22T04:02:09;18.37;;;13.23;;
19509;SDS011;9896;42.486;26.506;2023-06-22T04:04:34;17.13;;;12.47;;
19509;SDS011;9896;42.486;26.506;2023-06-22T04:07:00;17.27;;;13.10;;
19509;SDS011;9896;42.486;26.506;2023-06-22T04:09:25;16.73;;;12.60;;
19509;SDS011;9896;42.486;26.506;2023-06-22T04:11:51;17.07;;;12.70;;
19509;SDS011;9896;42.486;26.506;2023-06-22T04:14:17;18.77;;;12.77;;
19509;SDS011;9896;42.486;26.506;2023-06-22T04:16:42;18.80;;;13.83;;
19509;SDS011;9896;42.486;26.506;2023-06-22T04:19:07;19.73;;;13.40;;
19509;SDS011;9896;42.486;26.506;2023-06-22T04:21:38;18.33;;;13.77;;
19509;SDS011;9896;42.486;26.506;2023-06-22T04:24:03;20.60;;;13.93;;
19509;SDS011;9896;42.486;26.506;2023-06-22T04:26:28;23.07;;;13.80;;
19509;SDS011;9896;42.486;26.506;2023-06-22T04:28:54;21.33;;;14.43;;
19509;SDS011;9896;42.486;26.506;2023-06-22T04:31:20;23.27;;;15.03;;
19509;SDS011;9896;42.486;26.506;2023-06-22T04:33:46;19.73;;;14.13;;
19509;SDS011;9896;42.486;26.506;2023-06-22T04:36:11;22.77;;;14.47;;
19509;SDS011;9896;42.486;26.506;2023-06-22T04:38:39;21.33;;;14.27;;
19509;SDS011;9896;42.486;26.506;2023-06-22T04:41:05;23.83;;;15.53;;
19509;SDS011;9896;42.486;26.506;2023-06-22T04:43:31;27.67;;;16.73;;
19509;SDS011;9896;42.486;26.506;2023-06-22T04:45:57;24.50;;;15.10;;
19509;SDS011;9896;42.486;26.506;2023-06-22T04:48:29;22.03;;;15.60;;
19509;SDS011;9896;42.486;26.506;2023-06-22T04:50:58;24.23;;;15.93;;
19509;SDS011;9896;42.486;26.506;2023-06-22T04:53:28;21.37;;;16.17;;
19509;SDS011;9896;42.486;26.506;2023-06-22T04:55:54;22.63;;;15.77;;
19509;SDS011;9896;42.486;26.506;2023-06-22T04:58:20;19.93;;;15.17;;
19509;SDS011;9896;42.486;26.506;2023-06-22T05:00:46;23.80;;;15.40;;
19509;SDS011;9896;42.486;26.506;2023-06-22T05:03:12;22.57;;;15.63;;
19509;SDS011;9896;42.486;26.506;2023-06-22T05:05:37;27.23;;;16.63;;
19509;SDS011;9896;42.486;26.506;2023-06-22T05:08:03;24.53;;;16.03;;
19509;SDS011;9896;42.486;26.506;2023-06-22T05:10:30;26.60;;;16.80;;
19509;SDS011;9896;42.486;26.506;2023-06-22T05:12:55;23.50;;;16.43;;
19509;SDS011;9896;42.486;26.506;2023-06-22T05:15:20;35.63;;;16.87;;
19509;SDS011;9896;42.486;26.506;2023-06-22T05:17:47;23.93;;;15.57;;
19509;SDS011;9896;42.486;26.506;2023-06-22T05:20:12;32.10;;;16.23;;
19509;SDS011;9896;42.486;26.506;2023-06-22T05:22:38;22.97;;;16.30;;
19509;SDS011;9896;42.486;26.506;2023-06-22T05:25:04;25.33;;;16.17;;
19509;SDS011;9896;42.486;26.506;2023-06-22T05:27:31;25.37;;;15.37;;
19509;SDS011;9896;42.486;26.506;2023-06-22T05:29:56;24.50;;;16.30;;
19509;SDS011;9896;42.486;26.506;2023-06-22T05:32:21;23.07;;;16.00;;
19509;SDS011;9896;42.486;26.506;2023-06-22T05:34:47;26.37;;;16.47;;
19509;SDS011;9896;42.486;26.506;2023-06-22T05:37:12;23.90;;;14.43;;
19509;SDS011;9896;42.486;26.506;2023-06-22T05:39:38;23.07;;;15.83;;
19509;SDS011;9896;42.486;26.506;2023-06-22T05:42:04;25.73;;;16.03;;
19509;SDS011;9896;42.486;26.506;2023-06-22T05:44:30;25.40;;;16.30;;
19509;SDS011;9896;42.486;26.506;2023-06-22T05:46:55;26.23;;;14.47;;
19509;SDS011;9896;42.486;26.506;2023-06-22T05:49:20;30.10;;;14.25;;
19509;SDS011;9896;42.486;26.506;2023-06-22T05:51:47;22.63;;;13.35;;
19509;SDS011;9896;42.486;26.506;2023-06-22T05:54:12;22.55;;;14.30;;
19509;SDS011;9896;42.486;26.506;2023-06-22T05:56:38;24.67;;;14.20;;
19509;SDS011;9896;42.486;26.506;2023-06-22T05:59:04;20.67;;;13.50;;
19509;SDS011;9896;42.486;26.506;2023-06-22T06:01:29;22.75;;;13.50;;
19509;SDS011;9896;42.486;26.506;2023-06-22T06:03:56;22.88;;;13.52;;
19509;SDS011;9896;42.486;26.506;2023-06-22T06:06:21;18.02;;;13.27;;
19509;SDS011;9896;42.486;26.506;2023-06-22T06:08:49;25.88;;;14.38;;
19509;SDS011;9896;42.486;26.506;2023-06-22T06:11:14;26.90;;;13.38;;
19509;SDS011;9896;42.486;26.506;2023-06-22T06:13:39;19.35;;;12.18;;
19509;SDS011;9896;42.486;26.506;2023-06-22T06:16:05;18.88;;;12.02;;
19509;SDS011;9896;42.486;26.506;2023-06-22T06:18:30;21.33;;;10.20;;
19509;SDS011;9896;42.486;26.506;2023-06-22T06:20:55;14.68;;;9.02;;
19509;SDS011;9896;42.486;26.506;2023-06-22T06:23:21;10.10;;;7.70;;
19509;SDS011;9896;42.486;26.506;2023-06-22T06:25:46;10.80;;;8.75;;
19509;SDS011;9896;42.486;26.506;2023-06-22T06:28:11;11.15;;;7.78;;
19509;SDS011;9896;42.486;26.506;2023-06-22T06:30:36;8.65;;;7.63;;
19509;SDS011;9896;42.486;26.506;2023-06-22T06:33:02;13.88;;;8.73;;
19509;SDS011;9896;42.486;26.506;2023-06-22T06:35:27;16.73;;;7.97;;
19509;SDS011;9896;42.486;26.506;2023-06-22T06:37:53;10.57;;;8.35;;
19509;SDS011;9896;42.486;26.506;2023-06-22T06:40:18;13.05;;;7.93;;
19509;SDS011;9896;42.486;26.506;2023-06-22T06:42:44;12.82;;;7.88;;
19509;SDS011;9896;42.486;26.506;2023-06-22T06:45:31;11.82;;;8.05;;
19509;SDS011;9896;42.486;26.506;2023-06-22T06:47:58;14.75;;;7.70;;
19509;SDS011;9896;42.486;26.506;2023-06-22T06:50:23;10.65;;;7.57;;
19509;SDS011;9896;42.486;26.506;2023-06-22T06:52:48;9.52;;;8.50;;
19509;SDS011;9896;42.486;26.506;2023-06-22T06:55:15;9.00;;;7.50;;
19509;SDS011;9896;42.486;26.506;2023-06-22T06:57:41;9.75;;;7.45;;
19509;SDS011;9896;42.486;26.506;2023-06-22T07:00:07;10.40;;;7.50;;
19509;SDS011;9896;42.486;26.506;2023-06-22T07:02:37;11.02;;;7.60;;
19509;SDS011;9896;42.486;26.506;2023-06-22T07:05:02;6.43;;;5.82;;
19509;SDS011;9896;42.486;26.506;2023-06-22T07:07:29;10.85;;;6.40;;
19509;SDS011;9896;42.486;26.506;2023-06-22T07:09:54;15.82;;;6.93;;
19509;SDS011;9896;42.486;26.506;2023-06-22T07:12:20;9.65;;;6.60;;
19509;SDS011;9896;42.486;26.506;2023-06-22T07:14:46;9.55;;;6.43;;
19509;SDS011;9896;42.486;26.506;2023-06-22T07:17:11;10.98;;;7.10;;
19509;SDS011;9896;42.486;26.506;2023-06-22T07:19:36;10.65;;;6.55;;
19509;SDS011;9896;42.486;26.506;2023-06-22T07:22:02;9.83;;;6.13;;
19509;SDS011;9896;42.486;26.506;2023-06-22T07:24:27;9.65;;;6.43;;
19509;SDS011;9896;42.486;26.506;2023-06-22T07:26:52;11.60;;;7.10;;
19509;SDS011;9896;42.486;26.506;2023-06-22T07:29:17;11.38;;;6.75;;
19509;SDS011;9896;42.486;26.506;2023-06-22T07:31:43;8.90;;;6.07;;
19509;SDS011;9896;42.486;26.506;2023-06-22T07:34:08;13.57;;;5.85;;
19509;SDS011;9896;42.486;26.506;2023-06-22T07:36:34;8.32;;;5.95;;
19509;SDS011;9896;42.486;26.506;2023-06-22T07:39:00;11.80;;;6.78;;
19509;SDS011;9896;42.486;26.506;2023-06-22T07:41:26;9.90;;;6.20;;
19509;SDS011;9896;42.486;26.506;2023-06-22T07:43:51;10.65;;;5.82;;
19509;SDS011;9896;42.486;26.506;2023-06-22T07:46:16;11.25;;;5.75;;
19509;SDS011;9896;42.486;26.506;2023-06-22T07:48:42;8.00;;;6.07;;
19509;SDS011;9896;42.486;26.506;2023-06-22T07:51:09;13.55;;;5.80;;
19509;SDS011;9896;42.486;26.506;2023-06-22T07:53:34;10.98;;;6.72;;
19509;SDS011;9896;42.486;26.506;2023-06-22T07:56:01;10.52;;;5.72;;
19509;SDS011;9896;42.486;26.506;2023-06-22T07:58:31;13.77;;;5.85;;
19509;SDS011;9896;42.486;26.506;2023-06-22T08:00:57;6.65;;;5.70;;
19509;SDS011;9896;42.486;26.506;2023-06-22T08:03:22;10.02;;;7.05;;
19509;SDS011;9896;42.486;26.506;2023-06-22T08:05:47;7.72;;;5.60;;
19509;SDS011;9896;42.486;26.506;2023-06-22T08:08:14;5.85;;;5.22;;
19509;SDS011;9896;42.486;26.506;2023-06-22T08:10:39;7.20;;;5.93;;
19509;SDS011;9896;42.486;26.506;2023-06-22T08:13:06;8.50;;;5.70;;
19509;SDS011;9896;42.486;26.506;2023-06-22T08:15:31;11.95;;;6.60;;
19509;SDS011;9896;42.486;26.506;2023-06-22T08:17:56;8.05;;;6.03;;
19509;SDS011;9896;42.486;26.506;2023-06-22T08:20:22;8.57;;;6.25;;
19509;SDS011;9896;42.486;26.506;2023-06-22T08:22:48;7.75;;;6.53;;
19509;SDS011;9896;42.486;26.506;2023-06-22T08:25:13;8.65;;;7.03;;
19509;SDS011;9896;42.486;26.506;2023-06-22T08:27:38;9.73;;;6.07;;
19509;SDS011;9896;42.486;26.506;2023-06-22T08:30:04;15.55;;;6.47;;
19509;SDS011;9896;42.486;26.506;2023-06-22T08:32:30;8.88;;;6.40;;
19509;SDS011;9896;42.486;26.506;2023-06-22T08:34:55;9.05;;;6.68;;
19509;SDS011;9896;42.486;26.506;2023-06-22T08:37:21;6.78;;;6.07;;
19509;SDS011;9896;42.486;26.506;2023-06-22T08:39:50;7.38;;;6.30;;
19509;SDS011;9896;42.486;26.506;2023-06-22T08:42:15;9.52;;;6.88;;
19509;SDS011;9896;42.486;26.506;2023-06-22T08:44:40;8.40;;;6.38;;
19509;SDS011;9896;42.486;26.506;2023-06-22T08:47:06;11.23;;;6.18;;
19509;SDS011;9896;42.486;26.506;2023-06-22T08:49:31;7.50;;;5.78;;
19509;SDS011;9896;42.486;26.506;2023-06-22T08:51:56;10.98;;;6.45;;
19509;SDS011;9896;42.486;26.506;2023-06-22T08:54:22;7.53;;;5.90;;
19509;SDS011;9896;42.486;26.506;2023-06-22T08:56:47;20.23;;;14.85;;
19509;SDS011;9896;42.486;26.506;2023-06-22T08:59:13;6.97;;;6.28;;
19509;SDS011;9896;42.486;26.506;2023-06-22T09:01:38;10.45;;;6.20;;
19509;SDS011;9896;42.486;26.506;2023-06-22T09:04:03;9.10;;;6.03;;
19509;SDS011;9896;42.486;26.506;2023-06-22T09:06:31;8.63;;;5.93;;
19509;SDS011;9896;42.486;26.506;2023-06-22T09:08:57;6.53;;;5.82;;
19509;SDS011;9896;42.486;26.506;2023-06-22T09:11:24;7.25;;;6.35;;
19509;SDS011;9896;42.486;26.506;2023-06-22T09:13:49;8.80;;;6.47;;
19509;SDS011;9896;42.486;26.506;2023-06-22T09:16:15;6.78;;;5.65;;
19509;SDS011;9896;42.486;26.506;2023-06-22T09:18:41;8.77;;;6.15;;
19509;SDS011;9896;42.486;26.506;2023-06-22T09:21:06;7.93;;;6.53;;
19509;SDS011;9896;42.486;26.506;2023-06-22T09:23:32;7.10;;;5.75;;
19509;SDS011;9896;42.486;26.506;2023-06-22T09:25:57;6.95;;;6.25;;
19509;SDS011;9896;42.486;26.506;2023-06-22T09:28:22;7.63;;;6.18;;
19509;SDS011;9896;42.486;26.506;2023-06-22T09:30:48;9.50;;;7.88;;
19509;SDS011;9896;42.486;26.506;2023-06-22T09:33:13;8.52;;;5.93;;
19509;SDS011;9896;42.486;26.506;2023-06-22T09:35:39;7.57;;;6.35;;
19509;SDS011;9896;42.486;26.506;2023-06-22T09:38:04;7.05;;;5.55;;
19509;SDS011;9896;42.486;26.506;2023-06-22T09:40:29;6.75;;;6.15;;
19509;SDS011;9896;42.486;26.506;2023-06-22T09:42:55;8.32;;;7.03;;
19509;SDS011;9896;42.486;26.506;2023-06-22T09:45:20;7.25;;;6.47;;
19509;SDS011;9896;42.486;26.506;2023-06-22T09:47:45;6.97;;;6.28;;
19509;SDS011;9896;42.486;26.506;2023-06-22T09:50:10;9.15;;;6.53;;
19509;SDS011;9896;42.486;26.506;2023-06-22T09:52:36;9.02;;;5.95;;
19509;SDS011;9896;42.486;26.506;2023-06-22T09:55:01;7.65;;;6.80;;
19509;SDS011;9896;42.486;26.506;2023-06-22T09:57:28;8.20;;;6.80;;
19509;SDS011;9896;42.486;26.506;2023-06-22T09:59:54;12.38;;;7.40;;
19509;SDS011;9896;42.486;26.506;2023-06-22T10:02:20;8.70;;;6.47;;
19509;SDS011;9896;42.486;26.506;2023-06-22T10:04:45;7.55;;;6.07;;
19509;SDS011;9896;42.486;26.506;2023-06-22T10:07:10;8.50;;;6.15;;
19509;SDS011;9896;42.486;26.506;2023-06-22T10:09:35;7.95;;;6.28;;
19509;SDS011;9896;42.486;26.506;2023-06-22T10:12:01;9.20;;;6.47;;
19509;SDS011;9896;42.486;26.506;2023-06-22T10:14:26;11.32;;;6.65;;
19509;SDS011;9896;42.486;26.506;2023-06-22T10:16:54;7.88;;;6.05;;
19509;SDS011;9896;42.486;26.506;2023-06-22T10:19:19;6.53;;;5.93;;
19509;SDS011;9896;42.486;26.506;2023-06-22T10:21:45;6.78;;;5.70;;
19509;SDS011;9896;42.486;26.506;2023-06-22T10:24:10;7.20;;;6.05;;
19509;SDS011;9896;42.486;26.506;2023-06-22T10:26:36;9.60;;;7.00;;
19509;SDS011;9896;42.486;26.506;2023-06-22T10:29:01;10.07;;;6.20;;
19509;SDS011;9896;42.486;26.506;2023-06-22T10:31:27;11.35;;;5.65;;
19509;SDS011;9896;42.486;26.506;2023-06-22T10:33:53;7.80;;;5.97;;
19509;SDS011;9896;42.486;26.506;2023-06-22T10:36:18;6.25;;;5.45;;
19509;SDS011;9896;42.486;26.506;2023-06-22T10:38:44;8.32;;;6.13;;
19509;SDS011;9896;42.486;26.506;2023-06-22T10:41:09;7.50;;;6.03;;
19509;SDS011;9896;42.486;26.506;2023-06-22T10:43:34;7.45;;;6.68;;
19509;SDS011;9896;42.486;26.506;2023-06-22T10:45:59;6.50;;;5.78;;
19509;SDS011;9896;42.486;26.506;2023-06-22T10:48:25;10.27;;;6.50;;
19509;SDS011;9896;42.486;26.506;2023-06-22T10:50:50;7.65;;;6.32;;
19509;SDS011;9896;42.486;26.506;2023-06-22T10:53:15;6.97;;;6.28;;
19509;SDS011;9896;42.486;26.506;2023-06-22T10:55:41;9.43;;;6.35;;
19509;SDS011;9896;42.486;26.506;2023-06-22T10:58:06;6.80;;;5.95;;
19509;SDS011;9896;42.486;26.506;2023-06-22T11:00:31;6.85;;;5.93;;
19509;SDS011;9896;42.486;26.506;2023-06-22T11:02:57;8.35;;;6.20;;
19509;SDS011;9896;42.486;26.506;2023-06-22T11:05:23;9.25;;;6.40;;
19509;SDS011;9896;42.486;26.506;2023-06-22T11:07:48;9.90;;;7.38;;
19509;SDS011;9896;42.486;26.506;2023-06-22T11:10:14;9.27;;;6.60;;
19509;SDS011;9896;42.486;26.506;2023-06-22T11:12:40;7.88;;;6.03;;
19509;SDS011;9896;42.486;26.506;2023-06-22T11:15:05;7.70;;;6.13;;
19509;SDS011;9896;42.486;26.506;2023-06-22T11:17:31;11.82;;;6.60;;
19509;SDS011;9896;42.486;26.506;2023-06-22T11:19:56;9.43;;;6.50;;
19509;SDS011;9896;42.486;26.506;2023-06-22T11:22:21;8.43;;;5.97;;
19509;SDS011;9896;42.486;26.506;2023-06-22T11:24:46;12.57;;;7.72;;
19509;SDS011;9896;42.486;26.506;2023-06-22T11:27:12;8.45;;;6.60;;
19509;SDS011;9896;42.486;26.506;2023-06-22T11:29:37;10.85;;;6.40;;
19509;SDS011;9896;42.486;26.506;2023-06-22T11:32:05;8.32;;;6.53;;
19509;SDS011;9896;42.486;26.506;2023-06-22T11:34:30;10.45;;;6.10;;
19509;SDS011;9896;42.486;26.506;2023-06-22T11:36:55;8.80;;;6.57;;
19509;SDS011;9896;42.486;26.506;2023-06-22T11:39:21;9.68;;;6.05;;
19509;SDS011;9896;42.486;26.506;2023-06-22T11:41:46;7.75;;;6.90;;
19509;SDS011;9896;42.486;26.506;2023-06-22T11:44:11;7.53;;;5.93;;
19509;SDS011;9896;42.486;26.506;2023-06-22T11:46:37;6.43;;;5.82;;
19509;SDS011;9896;42.486;26.506;2023-06-22T11:49:02;7.22;;;6.30;;
19509;SDS011;9896;42.486;26.506;2023-06-22T11:51:27;8.32;;;5.90;;
19509;SDS011;9896;42.486;26.506;2023-06-22T11:53:53;8.35;;;6.03;;
19509;SDS011;9896;42.486;26.506;2023-06-22T11:56:18;11.15;;;6.18;;
19509;SDS011;9896;42.486;26.506;2023-06-22T11:58:44;6.20;;;5.60;;
19509;SDS011;9896;42.486;26.506;2023-06-22T12:01:09;7.57;;;6.22;;
19509;SDS011;9896;42.486;26.506;2023-06-22T12:03:34;10.45;;;6.47;;
19509;SDS011;9896;42.486;26.506;2023-06-22T12:05:59;7.75;;;6.15;;
19509;SDS011;9896;42.486;26.506;2023-06-22T12:08:25;7.93;;;6.85;;
19509;SDS011;9896;42.486;26.506;2023-06-22T12:10:50;8.30;;;6.03;;
19509;SDS011;9896;42.486;26.506;2023-06-22T12:13:15;7.13;;;6.43;;
19509;SDS011;9896;42.486;26.506;2023-06-22T12:15:41;9.13;;;7.78;;
19509;SDS011;9896;42.486;26.506;2023-06-22T12:18:06;9.70;;;6.90;;
19509;SDS011;9896;42.486;26.506;2023-06-22T12:20:32;7.72;;;6.35;;
19509;SDS011;9896;42.486;26.506;2023-06-22T12:22:58;11.00;;;6.78;;
19509;SDS011;9896;42.486;26.506;2023-06-22T12:25:23;8.55;;;5.53;;
19509;SDS011;9896;42.486;26.506;2023-06-22T12:27:48;10.43;;;6.32;;
19509;SDS011;9896;42.486;26.506;2023-06-22T12:30:15;16.23;;;6.20;;
19509;SDS011;9896;42.486;26.506;2023-06-22T12:32:41;9.52;;;6.13;;
19509;SDS011;9896;42.486;26.506;2023-06-22T12:35:06;10.18;;;6.38;;
19509;SDS011;9896;42.486;26.506;2023-06-22T12:37:37;7.32;;;6.25;;
19509;SDS011;9896;42.486;26.506;2023-06-22T12:40:02;6.88;;;6.18;;
19509;SDS011;9896;42.486;26.506;2023-06-22T12:42:28;7.72;;;6.57;;
19509;SDS011;9896;42.486;26.506;2023-06-22T12:44:54;9.18;;;7.03;;
19509;SDS011;9896;42.486;26.506;2023-06-22T12:47:19;8.85;;;6.47;;
19509;SDS011;9896;42.486;26.506;2023-06-22T12:49:45;7.93;;;6.65;;
19509;SDS011;9896;42.486;26.506;2023-06-22T12:52:10;8.85;;;7.07;;
19509;SDS011;9896;42.486;26.506;2023-06-22T12:54:36;7.28;;;5.68;;
19509;SDS011;9896;42.486;26.506;2023-06-22T12:57:01;6.93;;;6.22;;
19509;SDS011;9896;42.486;26.506;2023-06-22T12:59:27;8.73;;;6.32;;
19509;SDS011;9896;42.486;26.506;2023-06-22T13:01:52;8.77;;;5.97;;
19509;SDS011;9896;42.486;26.506;2023-06-22T13:04:17;8.00;;;6.00;;
19509;SDS011;9896;42.486;26.506;2023-06-22T13:06:44;6.68;;;5.97;;
19509;SDS011;9896;42.486;26.506;2023-06-22T13:09:13;7.20;;;6.45;;
19509;SDS011;9896;42.486;26.506;2023-06-22T13:11:38;9.10;;;6.20;;
19509;SDS011;9896;42.486;26.506;2023-06-22T13:14:04;8.07;;;6.07;;
19509;SDS011;9896;42.486;26.506;2023-06-22T13:16:29;6.82;;;5.50;;
19509;SDS011;9896;42.486;26.506;2023-06-22T13:18:54;6.15;;;5.55;;
19509;SDS011;9896;42.486;26.506;2023-06-22T13:21:20;6.78;;;5.97;;
19509;SDS011;9896;42.486;26.506;2023-06-22T13:23:45;9.38;;;5.90;;
19509;SDS011;9896;42.486;26.506;2023-06-22T13:26:10;7.90;;;6.10;;
19509;SDS011;9896;42.486;26.506;2023-06-22T13:28:35;8.05;;;5.75;;
19509;SDS011;9896;42.486;26.506;2023-06-22T13:31:01;9.82;;;6.05;;
19509;SDS011;9896;42.486;26.506;2023-06-22T13:33:26;6.53;;;5.85;;
19509;SDS011;9896;42.486;26.506;2023-06-22T13:35:51;7.18;;;6.32;;
19509;SDS011;9896;42.486;26.506;2023-06-22T13:38:17;7.05;;;5.90;;
19509;SDS011;9896;42.486;26.506;2023-06-22T13:40:42;7.70;;;5.75;;
19509;SDS011;9896;42.486;26.506;2023-06-22T13:43:08;7.15;;;6.13;;
19509;SDS011;9896;42.486;26.506;2023-06-22T13:45:33;6.95;;;5.88;;
19509;SDS011;9896;42.486;26.506;2023-06-22T13:47:58;7.32;;;6.13;;
19509;SDS011;9896;42.486;26.506;2023-06-22T13:50:24;7.20;;;5.55;;
19509;SDS011;9896;42.486;26.506;2023-06-22T13:52:49;6.25;;;5.60;;
19509;SDS011;9896;42.486;26.506;2023-06-22T13:55:14;6.00;;;5.40;;
19509;SDS011;9896;42.486;26.506;2023-06-22T13:57:40;6.22;;;5.07;;
19509;SDS011;9896;42.486;26.506;2023-06-22T14:00:06;6.18;;;5.57;;
19509;SDS011;9896;42.486;26.506;2023-06-22T14:02:32;6.25;;;5.40;;
19509;SDS011;9896;42.486;26.506;2023-06-22T14:04:57;10.48;;;5.53;;
19509;SDS011;9896;42.486;26.506;2023-06-22T14:07:22;9.57;;;5.68;;
19509;SDS011;9896;42.486;26.506;2023-06-22T14:09:49;13.85;;;5.82;;
19509;SDS011;9896;42.486;26.506;2023-06-22T14:12:14;10.27;;;5.47;;
19509;SDS011;9896;42.486;26.506;2023-06-22T14:14:40;7.38;;;5.55;;
19509;SDS011;9896;42.486;26.506;2023-06-22T14:17:06;58.20;;;9.10;;
19509;SDS011;9896;42.486;26.506;2023-06-22T14:19:31;7.22;;;5.78;;
19509;SDS011;9896;42.486;26.506;2023-06-22T14:21:57;11.18;;;6.30;;
19509;SDS011;9896;42.486;26.506;2023-06-22T14:24:22;11.00;;;5.55;;
19509;SDS011;9896;42.486;26.506;2023-06-22T14:26:48;5.90;;;5.30;;
19509;SDS011;9896;42.486;26.506;2023-06-22T14:29:13;10.10;;;6.00;;
19509;SDS011;9896;42.486;26.506;2023-06-22T14:31:38;7.25;;;5.50;;
19509;SDS011;9896;42.486;26.506;2023-06-22T14:34:04;10.38;;;5.97;;
19509;SDS011;9896;42.486;26.506;2023-06-22T14:36:30;8.75;;;5.65;;